Time;durP1;ratioP1;P1;durP2;ratioP2;P2;SDS_P1;SDS_P2;PMS_P1;PMS_P2;Temp;Humidity;BMP_temperature;BMP_pressure;BME280_temperature;BME280_humidity;BME280_pressure;Samples;Min_cycle;Max_cycle;Signal;HPM_P1;HPM_P2
2022/10/10 00:00:22;;;;;;;4.13;1.92;;;;;;;12.31;100.00;95985.25;6175979;23;20008;-58
2022/10/10 00:02:48;;;;;;;3.65;1.90;;;;;;;12.29;100.00;95981.94;6175968;23;20005;-66
2022/10/10 00:05:13;;;;;;;4.88;2.25;;;;;;;12.26;100.00;95987.47;6176057;23;20029;-62
2022/10/10 00:07:39;;;;;;;2.35;2.03;;;;;;;12.26;100.00;95986.66;6175476;23;20033;-63
2022/10/10 00:10:04;;;;;;;4.10;2.25;;;;;;;12.25;100.00;95987.63;6176007;23;20008;-62
2022/10/10 00:12:30;;;;;;;6.53;2.55;;;;;;;12.23;100.00;95987.75;6176246;23;20450;-63
2022/10/10 00:14:55;;;;;;;3.85;2.35;;;;;;;12.21;100.00;95997.63;6176013;23;20001;-62
2022/10/10 00:17:21;;;;;;;2.60;2.40;;;;;;;12.22;100.00;95988.75;6175916;22;20443;-62
2022/10/10 00:19:46;;;;;;;4.07;2.47;;;;;;;12.22;100.00;95983.47;6175809;23;20433;-63
2022/10/10 00:22:11;;;;;;;8.93;2.45;;;;;;;12.22;100.00;95983.47;6176337;22;19997;-58
2022/10/10 00:24:37;;;;;;;7.85;2.50;;;;;;;12.22;100.00;95986.09;6175995;23;20069;-66
2022/10/10 00:27:02;;;;;;;3.00;2.80;;;;;;;12.18;100.00;95984.75;6175733;23;20005;-66
2022/10/10 00:29:27;;;;;;;6.93;2.50;;;;;;;12.13;100.00;95986.97;6175911;23;20011;-66
2022/10/10 00:31:53;;;;;;;3.90;2.45;;;;;;;12.08;100.00;95989.22;6176093;23;20004;-66
2022/10/10 00:34:18;;;;;;;5.13;2.58;;;;;;;12.03;100.00;95981.75;6176284;23;19997;-65
2022/10/10 00:36:44;;;;;;;3.80;2.78;;;;;;;11.99;100.00;95983.78;6175967;23;20035;-66
2022/10/10 00:39:09;;;;;;;4.20;2.90;;;;;;;11.96;100.00;95984.09;6175543;23;20427;-66
2022/10/10 00:41:34;;;;;;;10.30;4.80;;;;;;;11.95;100.00;95989.53;6176115;23;20008;-62
2022/10/10 00:44:04;;;;;;;9.13;4.82;;;;;;;11.90;100.00;95985.47;6175341;23;20123;-66
2022/10/10 00:46:30;;;;;;;6.28;4.57;;;;;;;11.88;100.00;95983.97;6175844;23;20000;-65
2022/10/10 00:48:56;;;;;;;6.03;2.70;;;;;;;11.87;100.00;95980.50;6175648;23;20005;-65
2022/10/10 00:51:21;;;;;;;4.63;2.20;;;;;;;11.87;100.00;95977.03;6176000;22;20335;-66
2022/10/10 00:53:51;;;;;;;2.53;2.30;;;;;;;11.86;100.00;95985.94;6176146;23;20033;-65
2022/10/10 00:56:21;;;;;;;7.70;2.60;;;;;;;11.86;100.00;95983.28;6175503;23;20058;-66
2022/10/10 00:58:51;;;;;;;6.40;1.55;;;;;;;11.80;100.00;95982.06;6175914;23;20004;-65
2022/10/10 01:01:16;;;;;;;1.60;1.50;;;;;;;11.76;100.00;95978.03;6175502;23;20009;-62
2022/10/10 01:03:42;;;;;;;4.47;1.90;;;;;;;11.74;100.00;95982.63;6175912;23;20001;-67
2022/10/10 01:06:07;;;;;;;1.77;1.40;;;;;;;11.75;100.00;95976.38;6175595;23;20119;-68
2022/10/10 01:08:34;;;;;;;6.05;1.50;;;;;;;11.75;100.00;95969.28;6175826;23;20021;-67
2022/10/10 01:11:16;;;;;;;5.18;1.50;;;;;;;11.72;100.00;95976.66;6175755;23;20126;-68
2022/10/10 01:13:59;;;;;;;2.65;1.77;;;;;;;11.69;100.00;95974.28;6175585;23;20079;-67
2022/10/10 01:16:25;;;;;;;9.48;1.92;;;;;;;11.65;100.00;95976.41;6175534;23;20382;-68
2022/10/10 01:19:05;;;;;;;3.42;1.40;;;;;;;11.64;100.00;95973.88;6176013;23;20017;-64
2022/10/10 01:21:54;;;;;;;4.90;1.60;;;;;;;11.66;100.00;95969.28;6175349;23;20008;-67
2022/10/10 01:24:48;;;;;;;2.08;1.42;;;;;;;11.66;100.00;95977.22;6175898;22;20428;-69
2022/10/10 01:27:24;;;;;;;10.48;2.17;;;;;;;11.60;100.00;95974.16;6175654;23;20001;-68
2022/10/10 01:30:09;;;;;;;5.40;2.40;;;;;;;11.61;100.00;95970.56;6176134;23;20057;-69
2022/10/10 01:32:41;;;;;;;5.57;2.10;;;;;;;11.60;100.00;95971.53;6148973;23;20445;-69
2022/10/10 01:35:17;;;;;;;4.32;2.00;;;;;;;11.62;100.00;95974.03;6175625;23;20030;-68
2022/10/10 01:37:45;;;;;;;;;;;;;;;11.60;100.00;95966.25;6175691;23;20496;-68
2022/10/10 01:40:20;;;;;;;2.65;2.10;;;;;;;11.58;100.00;95965.56;6175436;23;19903;-62
2022/10/10 01:42:59;;;;;;;3.17;1.40;;;;;;;11.58;100.00;95956.81;6175268;23;20009;-69
2022/10/10 01:45:25;;;;;;;4.72;2.00;;;;;;;11.58;100.00;95956.81;6175853;23;20001;-69
2022/10/10 01:47:54;;;;;;;4.45;1.70;;;;;;;11.58;100.00;95956.81;6175847;23;20009;-69
2022/10/10 01:50:22;;;;;;;1.60;1.50;;;;;;;11.55;100.00;95963.22;6175622;23;20023;-69
2022/10/10 01:53:22;;;;;;;1.67;1.55;;;;;;;11.52;100.00;95957.38;6175462;23;19997;-69
2022/10/10 01:56:07;;;;;;;6.97;1.52;;;;;;;11.55;100.00;95959.75;6174998;23;20005;-69
2022/10/10 01:59:01;;;;;;;5.07;1.40;;;;;;;11.53;100.00;95959.06;6175294;23;20001;-63
2022/10/10 02:01:32;;;;;;;1.60;1.50;;;;;;;11.53;100.00;95959.06;6175597;23;20075;-65
2022/10/10 02:04:37;;;;;;;2.60;1.90;;;;;;;11.50;100.00;95954.91;6175736;23;20439;-65
2022/10/10 02:07:13;;;;;;;7.10;2.03;;;;;;;11.50;100.00;95946.16;6175338;23;19997;-66
2022/10/10 02:09:41;;;;;;;2.55;1.50;;;;;;;11.52;100.00;95952.13;6175443;23;20001;-65
2022/10/10 02:12:09;;;;;;;4.38;1.77;;;;;;;11.52;100.00;95950.31;6175427;23;19997;-65
2022/10/10 02:14:41;;;;;;;4.53;1.60;;;;;;;11.54;100.00;95942.25;6175084;23;20004;-65
2022/10/10 02:17:10;;;;;;;4.47;1.60;;;;;;;11.52;100.00;95946.84;6175299;23;20626;-62
2022/10/10 02:19:40;;;;;;;2.25;1.40;;;;;;;11.54;100.00;95950.16;6175022;23;20415;-63
2022/10/10 02:22:06;;;;;;;4.78;1.60;;;;;;;11.54;100.00;95944.91;6175467;23;20435;-59
2022/10/10 02:24:31;;;;;;;3.80;1.55;;;;;;;11.52;100.00;95938.94;6174839;23;20007;-59
2022/10/10 02:27:41;;;;;;;3.72;1.70;;;;;;;11.50;100.00;95938.25;6175552;23;19993;-58
2022/10/10 02:30:08;;;;;;;1.58;1.50;;;;;;;11.50;100.00;95935.59;6175922;23;20006;-58
2022/10/10 02:32:45;;;;;;;4.88;1.70;;;;;;;11.48;100.00;95937.56;6175260;23;19997;-59
2022/10/10 02:35:16;;;;;;;3.92;1.60;;;;;;;11.46;100.00;95933.25;6175233;23;20108;-59
2022/10/10 02:37:44;;;;;;;1.80;1.70;;;;;;;11.48;100.00;95934.91;6175557;23;20005;-59
2022/10/10 02:40:13;;;;;;;5.70;1.80;;;;;;;11.49;100.00;95937.41;6175216;23;19997;-58
2022/10/10 02:42:39;;;;;;;2.15;1.92;;;;;;;11.51;100.00;95937.28;6175581;23;20001;-58
2022/10/10 02:45:05;;;;;;;3.40;2.97;;;;;;;11.51;100.00;95934.63;6174848;23;20001;-58
2022/10/10 02:47:30;;;;;;;5.32;3.03;;;;;;;11.51;100.00;95935.47;6175352;23;20492;-58
2022/10/10 02:49:55;;;;;;;3.55;3.25;;;;;;;11.51;100.00;95939.91;6174921;23;20096;-58
2022/10/10 02:52:21;;;;;;;3.00;2.70;;;;;;;11.50;100.00;95943.53;6175139;23;20356;-58
2022/10/10 02:54:46;;;;;;;4.30;3.03;;;;;;;11.52;100.00;95937.16;6175330;22;20001;-59
2022/10/10 02:57:12;;;;;;;2.97;2.40;;;;;;;11.53;100.00;95938.81;6174736;23;20005;-66
2022/10/10 02:59:37;;;;;;;4.57;4.18;;;;;;;11.54;100.00;95943.09;6175175;23;20013;-62
2022/10/10 03:02:02;;;;;;;2.63;2.38;;;;;;;11.54;100.00;95947.53;6174685;23;20465;-62
2022/10/10 03:04:28;;;;;;;8.10;2.20;;;;;;;11.53;100.00;95935.31;6176345;22;20054;-62
2022/10/10 03:06:54;;;;;;;4.25;2.08;;;;;;;11.50;100.00;95932.97;6175282;23;20074;-62
2022/10/10 03:09:19;;;;;;;6.97;2.38;;;;;;;11.51;100.00;95934.63;6174537;23;20041;-62
2022/10/10 03:11:44;;;;;;;3.97;2.03;;;;;;;11.52;100.00;95934.50;6175632;23;20001;-62
2022/10/10 03:14:10;;;;;;;5.28;2.42;;;;;;;11.52;100.00;95941.56;6176118;23;20005;-62
2022/10/10 03:16:35;;;;;;;6.63;2.47;;;;;;;11.52;100.00;95941.56;6176166;23;20008;-59
2022/10/10 03:19:02;;;;;;;4.03;1.92;;;;;;;11.52;100.00;95941.56;6177111;23;20447;-62
2022/10/10 03:21:27;;;;;;;4.82;2.00;;;;;;;11.51;100.00;95938.13;6177017;23;20004;-62
2022/10/10 03:23:53;;;;;;;1.92;1.77;;;;;;;11.53;100.00;95932.69;6176817;23;20001;-62
2022/10/10 03:26:18;;;;;;;2.50;1.88;;;;;;;11.51;100.00;95934.63;6176720;23;20009;-62
2022/10/10 03:28:43;;;;;;;4.15;2.55;;;;;;;11.51;100.00;95938.13;6176924;23;20008;-62
2022/10/10 03:31:09;;;;;;;3.65;2.45;;;;;;;11.50;100.00;95935.59;6175808;23;20548;-62
2022/10/10 03:33:34;;;;;;;5.30;2.35;;;;;;;11.49;100.00;95936.59;6177209;22;20012;-62
2022/10/10 03:36:00;;;;;;;2.80;2.10;;;;;;;11.46;100.00;95927.13;6176803;23;20316;-69
2022/10/10 03:38:25;;;;;;;2.30;2.10;;;;;;;11.44;100.00;95926.44;6176844;23;20335;-67
2022/10/10 03:40:50;;;;;;;3.05;1.77;;;;;;;11.45;100.00;95934.22;6176937;23;20011;-67
2022/10/10 03:43:16;;;;;;;4.53;1.73;;;;;;;11.50;100.00;95940.88;6176687;23;20016;-66
2022/10/10 03:45:43;;;;;;;3.90;1.63;;;;;;;11.49;100.00;95939.22;6176578;23;19997;-66
2022/10/10 03:48:09;;;;;;;3.65;1.70;;;;;;;11.50;100.00;95941.72;6176792;23;20054;-67
2022/10/10 03:50:35;;;;;;;2.50;1.80;;;;;;;11.51;100.00;95942.53;6177012;23;19997;-66
2022/10/10 03:53:00;;;;;;;5.63;1.83;;;;;;;11.53;100.00;95940.59;6176933;23;20054;-66
2022/10/10 03:55:26;;;;;;;1.83;1.77;;;;;;;11.54;100.00;95939.63;6176630;23;20007;-57
2022/10/10 03:57:51;;;;;;;4.13;1.90;;;;;;;11.54;100.00;95947.53;6176698;23;20072;-63
2022/10/10 04:00:19;;;;;;;1.65;1.55;;;;;;;11.54;100.00;95942.25;6175905;23;20469;-63
2022/10/10 04:02:44;;;;;;;6.88;2.00;;;;;;;11.51;100.00;95947.81;6176773;23;20001;-63
2022/10/10 04:05:09;;;;;;;2.85;1.50;;;;;;;11.51;100.00;95948.66;6175632;23;20397;-63
2022/10/10 04:07:35;;;;;;;4.00;1.60;;;;;;;11.52;100.00;95949.47;6176785;23;20005;-63
2022/10/10 04:10:00;;;;;;;4.55;2.35;;;;;;;11.54;100.00;95944.91;6176378;23;20049;-63
2022/10/10 04:12:26;;;;;;;3.13;2.05;;;;;;;11.55;100.00;95946.56;6176317;23;19997;-63
2022/10/10 04:14:51;;;;;;;3.83;1.67;;;;;;;11.58;100.00;95952.38;6176561;23;19997;-66
2022/10/10 04:17:16;;;;;;;1.60;1.50;;;;;;;11.56;100.00;95948.22;6176729;23;20078;-62
2022/10/10 04:19:42;;;;;;;4.30;1.60;;;;;;;11.54;100.00;95939.63;6176858;23;20025;-62
2022/10/10 04:22:07;;;;;;;1.70;1.50;;;;;;;11.54;100.00;95931.72;6177948;22;20080;-62
2022/10/10 04:24:33;;;;;;;8.23;1.73;;;;;;;11.50;100.00;95933.81;6177796;23;20005;-62
2022/10/10 04:26:58;;;;;;;3.90;1.70;;;;;;;11.48;100.00;95934.91;6177686;23;19997;-62
2022/10/10 04:29:23;;;;;;;1.55;1.50;;;;;;;11.44;100.00;95935.22;6177721;23;20446;-62
2022/10/10 04:31:49;;;;;;;5.45;1.60;;;;;;;11.42;100.00;95937.16;6177617;23;20069;-62
2022/10/10 04:34:14;;;;;;;1.80;1.67;;;;;;;11.42;100.00;95938.94;6177917;23;20005;-59
2022/10/10 04:36:40;;;;;;;3.97;1.50;;;;;;;11.39;100.00;95932.16;6178063;23;20001;-55
2022/10/10 04:39:06;;;;;;;1.55;1.45;;;;;;;11.37;100.00;95934.09;6176667;23;20027;-55
2022/10/10 04:41:31;;;;;;;5.93;1.35;;;;;;;11.37;100.00;95936.72;6177808;23;20005;-57
2022/10/10 04:43:57;;;;;;;1.50;1.35;;;;;;;11.33;100.00;95943.25;6177509;23;19997;-55
2022/10/10 04:46:22;;;;;;;4.65;1.40;;;;;;;11.28;100.00;95940.22;6177696;23;19997;-54
2022/10/10 04:48:48;;;;;;;1.73;1.60;;;;;;;11.22;100.00;95951.31;6151224;23;20005;-56
2022/10/10 04:51:13;;;;;;;1.38;1.38;;;;;;;11.19;100.00;95952.44;6177724;23;20082;-57
2022/10/10 04:53:39;;;;;;;2.38;1.92;;;;;;;11.18;100.00;95954.25;6178099;23;20612;-54
2022/10/10 04:56:04;;;;;;;5.95;1.67;;;;;;;11.13;100.00;95953.81;6178052;23;20001;-62
2022/10/10 04:58:29;;;;;;;2.25;1.50;;;;;;;11.13;100.00;95961.72;6177548;23;20406;-61
2022/10/10 05:00:55;;;;;;;2.67;1.83;;;;;;;11.10;100.00;95954.09;6177668;23;20005;-62
2022/10/10 05:03:22;;;;;;;2.75;2.05;;;;;;;11.09;100.00;95951.59;6177530;23;20054;-62
2022/10/10 05:05:48;;;;;;;5.32;2.50;;;;;;;11.08;100.00;95953.41;6177618;23;20080;-62
2022/10/10 05:08:15;;;;;;;3.65;2.70;;;;;;;11.02;100.00;95953.97;6177524;23;20455;-62
2022/10/10 05:10:40;;;;;;;5.93;2.50;;;;;;;10.94;100.00;95962.53;6177929;23;20031;-67
2022/10/10 05:13:09;;;;;;;2.92;2.40;;;;;;;10.91;100.00;95956.72;6177462;23;20005;-65
2022/10/10 05:15:35;;;;;;;5.30;2.92;;;;;;;10.84;100.00;95962.53;6177337;23;20001;-66
2022/10/10 05:18:00;;;;;;;2.13;2.00;;;;;;;10.81;100.00;95964.59;6177259;23;20098;-66
2022/10/10 05:20:26;;;;;;;2.45;2.22;;;;;;;10.80;100.00;95963.78;6177570;23;20378;-66
2022/10/10 05:22:52;;;;;;;2.30;2.10;;;;;;;10.75;100.00;95963.38;6177750;23;19997;-67
2022/10/10 05:25:17;;;;;;;3.28;2.47;;;;;;;10.70;100.00;95976.09;6177323;23;20016;-67
2022/10/10 05:27:43;;;;;;;3.33;2.40;;;;;;;10.63;100.00;95967.91;6177865;23;19997;-67
2022/10/10 05:30:09;;;;;;;2.20;2.10;;;;;;;10.59;100.00;95972.63;6176919;23;20013;-56
2022/10/10 05:32:34;;;;;;;1.80;1.55;;;;;;;10.60;100.00;95982.19;6177421;23;20004;-64
2022/10/10 05:35:00;;;;;;;2.90;1.38;;;;;;;10.64;100.00;95979.28;6177603;23;20001;-66
2022/10/10 05:37:25;;;;;;;4.78;1.40;;;;;;;10.68;100.00;95975.41;6177269;23;20028;-66
2022/10/10 05:39:50;;;;;;;4.40;2.10;;;;;;;10.82;100.00;95974.16;6177581;23;20324;-66
2022/10/10 05:42:16;;;;;;;5.55;1.95;;;;;;;10.78;100.00;95981.53;6177916;23;20005;-67
2022/10/10 05:44:41;;;;;;;1.85;1.75;;;;;;;10.80;100.00;95981.38;6176702;23;20427;-66
2022/10/10 05:47:07;;;;;;;2.17;2.08;;;;;;;10.83;100.00;95981.94;6176958;23;19997;-66
2022/10/10 05:49:32;;;;;;;5.28;3.97;;;;;;;10.85;100.00;95982.63;6177407;22;20061;-66
2022/10/10 05:51:57;;;;;;;3.67;3.20;;;;;;;10.87;100.00;95985.97;6176777;23;20001;-67
2022/10/10 05:54:23;;;;;;;8.27;2.90;;;;;;;10.89;100.00;95986.66;6174783;23;20028;-65
2022/10/10 05:56:48;;;;;;;4.97;3.10;;;;;;;10.88;100.00;95987.63;6176216;23;20009;-64
2022/10/10 05:59:13;;;;;;;9.07;4.60;;;;;;;10.87;100.00;95988.59;6177063;23;20064;-64
2022/10/10 06:01:39;;;;;;;7.63;4.55;;;;;;;10.88;100.00;95987.63;6177218;23;20001;-63
2022/10/10 06:04:05;;;;;;;8.45;4.35;;;;;;;10.89;100.00;95988.47;6176938;23;20435;-63
2022/10/10 06:06:30;;;;;;;4.22;3.13;;;;;;;10.89;100.00;95989.28;6177028;23;20001;-63
2022/10/10 06:08:56;;;;;;;5.50;2.63;;;;;;;10.85;100.00;95993.16;6176719;23;20001;-66
2022/10/10 06:11:23;;;;;;;14.40;3.15;;;;;;;10.79;100.00;95999.00;6177053;23;20001;-64
2022/10/10 06:13:52;;;;;;;3.20;2.85;;;;;;;10.78;100.00;96005.22;6176894;23;20019;-64
2022/10/10 06:16:19;;;;;;;6.43;2.70;;;;;;;10.73;100.00;95994.28;6176976;23;20001;-64
2022/10/10 06:18:44;;;;;;;5.40;3.00;;;;;;;10.68;100.00;96002.56;6177043;23;20013;-64
2022/10/10 06:21:10;;;;;;;9.45;3.08;;;;;;;10.64;100.00;95995.91;6176445;23;20076;-65
2022/10/10 06:23:36;;;;;;;6.45;2.70;;;;;;;10.58;100.00;95999.91;6150418;22;20044;-66
2022/10/10 06:26:01;;;;;;;4.97;2.60;;;;;;;10.50;100.00;95999.75;6176405;23;20032;-65
2022/10/10 06:28:27;;;;;;;2.55;2.45;;;;;;;10.49;100.00;96008.59;6150368;22;19997;-63
2022/10/10 06:30:52;;;;;;;2.70;2.60;;;;;;;10.46;100.00;96012.34;6177015;23;20001;-65
2022/10/10 06:33:18;;;;;;;2.85;2.65;;;;;;;10.43;100.00;96014.41;6177835;22;20439;-63
2022/10/10 06:35:45;;;;;;;4.93;2.30;;;;;;;10.41;100.00;96016.34;6176860;23;20392;-64
2022/10/10 06:38:12;;;;;;;3.40;3.10;;;;;;;10.43;100.00;96019.66;6150931;23;20806;-64
2022/10/10 06:40:38;;;;;;;3.22;3.03;;;;;;;10.43;100.00;96023.16;6177584;23;20003;-63
2022/10/10 06:43:05;;;;;;;5.63;4.30;;;;;;;10.46;100.00;96028.13;6176170;23;20009;-63
2022/10/10 06:45:34;;;;;;;4.30;3.20;;;;;;;10.49;100.00;96028.84;6177052;23;20000;-63
2022/10/10 06:48:00;;;;;;;3.17;2.97;;;;;;;10.50;100.00;96033.97;6177062;23;20021;-63
2022/10/10 06:50:25;;;;;;;3.05;2.85;;;;;;;10.53;100.00;96036.34;6177131;23;20109;-57
2022/10/10 06:52:51;;;;;;;5.55;2.70;;;;;;;10.60;100.00;96041.88;6177397;23;20010;-64
2022/10/10 06:55:16;;;;;;;4.85;2.90;;;;;;;10.64;100.00;96035.41;6177241;23;20019;-63
2022/10/10 06:57:42;;;;;;;4.15;2.90;;;;;;;10.68;100.00;96039.44;6176881;23;20029;-63
2022/10/10 07:00:08;;;;;;;2.92;2.72;;;;;;;10.73;100.00;96033.78;6177372;23;20454;-64
2022/10/10 07:02:33;;;;;;;3.80;2.70;;;;;;;10.73;100.00;96034.59;6177368;22;20017;-64
2022/10/10 07:04:59;;;;;;;2.88;2.65;;;;;;;10.73;100.00;96041.69;6177161;23;20461;-63
2022/10/10 07:07:24;;;;;;;5.07;2.90;;;;;;;10.73;100.00;96047.75;6177200;23;20074;-66
2022/10/10 07:09:50;;;;;;;2.90;2.63;;;;;;;10.73;100.00;96053.03;6177384;23;20454;-63
2022/10/10 07:12:15;;;;;;;4.80;2.58;;;;;;;10.78;100.00;96060.53;6177266;22;20004;-66
2022/10/10 07:14:40;;;;;;;3.22;2.92;;;;;;;10.79;100.00;96056.94;6176943;23;20028;-65
2022/10/10 07:17:06;;;;;;;2.90;2.70;;;;;;;10.82;100.00;96055.81;6177119;23;20005;-66
2022/10/10 07:19:31;;;;;;;2.83;2.63;;;;;;;10.85;100.00;96061.66;6176793;23;20448;-66
2022/10/10 07:21:56;;;;;;;2.92;2.65;;;;;;;10.84;100.00;96062.63;6177189;23;19997;-66
2022/10/10 07:24:22;;;;;;;4.18;3.30;;;;;;;10.90;100.00;96061.25;6177143;23;20012;-66
2022/10/10 07:26:51;;;;;;;3.60;3.30;;;;;;;10.92;100.00;96061.94;6176705;23;20072;-66
2022/10/10 07:29:17;;;;;;;3.10;2.47;;;;;;;10.95;100.00;96064.31;6176980;23;20012;-66
2022/10/10 07:31:42;;;;;;;2.65;2.55;;;;;;;11.01;100.00;96065.59;6177028;23;20001;-67
2022/10/10 07:34:07;;;;;;;5.13;2.50;;;;;;;11.08;100.00;96066.69;6176878;23;20001;-66
2022/10/10 07:36:33;;;;;;;3.78;3.47;;;;;;;11.19;100.00;96071.00;6176870;23;20019;-67
2022/10/10 07:38:58;;;;;;;4.18;2.80;;;;;;;11.36;100.00;96064.22;6176750;23;20054;-66
2022/10/10 07:41:23;;;;;;;3.83;2.30;;;;;;;11.41;100.00;96067.31;6176890;23;20012;-66
2022/10/10 07:43:53;;;;;;;2.38;2.20;;;;;;;11.58;100.00;96072.84;6176414;23;20389;-66
2022/10/10 07:46:19;;;;;;;13.70;8.20;;;;;;;11.70;100.00;96071.75;6150603;23;20001;-60
2022/10/10 07:48:45;;;;;;;14.80;10.60;;;;;;;11.85;100.00;96076.59;6176762;23;20007;-59
2022/10/10 07:51:11;;;;;;;9.98;6.50;;;;;;;12.00;100.00;96077.81;6176855;23;20005;-59
2022/10/10 07:53:37;;;;;;;6.72;5.55;;;;;;;12.05;100.00;96082.69;6176754;23;20050;-59
2022/10/10 07:56:06;;;;;;;10.10;5.55;;;;;;;12.05;100.00;96082.69;6177909;23;20005;-59
2022/10/10 07:58:33;;;;;;;8.43;4.65;;;;;;;12.14;100.00;96088.94;6177849;23;20351;-59
2022/10/10 08:01:07;;;;;;;5.55;4.78;;;;;;;12.14;100.00;96088.94;6178457;23;20005;-59
2022/10/10 08:03:32;;;;;;;8.48;5.32;;;;;;;12.14;100.00;96094.22;6177539;23;20032;-59
2022/10/10 08:05:57;;;;;;;7.47;5.63;;;;;;;12.22;100.00;96086.41;6178606;22;20020;-64
2022/10/10 08:08:23;;;;;;;15.65;5.40;;;;;;;12.28;100.00;96090.28;6177760;23;20364;-66
2022/10/10 08:10:48;;;;;;;6.68;5.70;;;;;;;12.29;100.00;96089.31;6177879;23;20035;-66
2022/10/10 08:13:13;;;;;;;8.25;5.53;;;;;;;12.68;100.00;96088.34;6178085;23;20432;-66
2022/10/10 08:15:40;;;;;;;11.88;5.90;;;;;;;12.64;100.00;96090.47;6178004;23;20008;-66
2022/10/10 08:18:06;;;;;;;17.45;6.10;;;;;;;12.45;100.00;96086.91;6177619;23;20008;-66
2022/10/10 08:20:31;;;;;;;9.90;6.55;;;;;;;12.43;100.00;96091.50;6178052;23;20008;-66
2022/10/10 08:22:56;;;;;;;12.18;5.75;;;;;;;12.69;100.00;96088.22;6178059;23;19997;-66
2022/10/10 08:25:22;;;;;;;8.63;5.60;;;;;;;12.58;100.00;96091.03;6177754;23;20053;-66
2022/10/10 08:27:47;;;;;;;11.30;6.88;;;;;;;12.94;100.00;96098.28;6177862;23;19993;-66
2022/10/10 08:30:13;;;;;;;7.90;7.00;;;;;;;12.98;100.00;96092.53;6178067;23;20080;-66
2022/10/10 08:32:38;;;;;;;7.05;6.25;;;;;;;13.22;100.00;96091.13;6177836;23;20218;-66
2022/10/10 08:35:04;;;;;;;7.10;6.43;;;;;;;13.38;100.00;96095.78;6177935;23;20001;-66
2022/10/10 08:37:29;;;;;;;12.57;7.90;;;;;;;13.57;100.00;96084.25;6177566;23;20012;-66
2022/10/10 08:39:55;;;;;;;19.95;7.72;;;;;;;13.65;100.00;96086.16;6177885;23;20018;-66
2022/10/10 08:42:29;;;;;;;23.50;9.18;;;;;;;13.21;100.00;96088.66;6177837;23;19997;-66
2022/10/10 08:45:00;;;;;;;12.57;9.48;;;;;;;13.17;100.00;96094.25;6177995;23;20028;-66
2022/10/10 08:48:00;;;;;;;9.48;8.65;;;;;;;13.22;100.00;96087.69;6177745;23;20046;-64
2022/10/10 08:51:04;;;;;;;17.70;8.55;;;;;;;13.07;100.00;96088.16;6151557;23;20070;-64
2022/10/10 08:53:40;;;;;;;14.35;8.98;;;;;;;13.12;100.00;96087.72;6179897;23;20499;-63
2022/10/10 08:56:06;;;;;;;;;;;;;;;13.12;100.00;96085.09;6178492;23;20328;-64
2022/10/10 08:58:46;;;;;;;10.27;8.80;;;;;;;13.14;100.00;96088.41;6177883;22;19909;-63
2022/10/10 09:01:17;;;;;;;11.00;9.82;;;;;;;12.95;100.00;96081.44;6177759;23;20001;-64
2022/10/10 09:03:47;;;;;;;12.05;10.80;;;;;;;13.01;100.00;96080.84;6177368;22;20043;-66
2022/10/10 09:06:40;;;;;;;11.07;8.52;;;;;;;13.13;100.00;96074.34;6177147;23;20376;-66
2022/10/10 09:09:20;;;;;;;8.82;8.02;;;;;;;13.31;100.00;96076.19;6177644;23;20001;-66
2022/10/10 09:11:51;;;;;;;9.60;7.90;;;;;;;13.32;100.00;96077.84;6177505;23;20058;-66
2022/10/10 09:14:38;;;;;;;12.38;9.52;;;;;;;13.30;100.00;96079.81;6177613;23;20001;-65
2022/10/10 09:17:15;;;;;;;11.38;9.73;;;;;;;13.29;100.00;96079.00;6177931;22;20012;-65
2022/10/10 09:19:49;;;;;;;10.18;9.18;;;;;;;13.35;100.00;96082.84;6177327;23;20021;-65
2022/10/10 09:22:18;;;;;;;9.38;8.52;;;;;;;13.53;100.00;96080.25;6177838;22;20020;-64
2022/10/10 09:24:51;;;;;;;10.52;9.52;;;;;;;13.49;100.00;96086.84;6177442;23;20040;-59
2022/10/10 09:27:30;;;;;;;9.10;8.20;;;;;;;13.67;100.00;96085.97;6177451;23;19997;-64
2022/10/10 09:30:19;;;;;;;8.77;7.97;;;;;;;13.63;100.00;96087.28;6177573;23;20005;-64
2022/10/10 09:32:51;;;;;;;8.70;7.90;;;;;;;13.65;100.00;96086.16;6177453;23;20004;-64
2022/10/10 09:35:19;;;;;;;8.60;7.90;;;;;;;13.58;100.00;96085.06;6177550;23;19997;-64
2022/10/10 09:37:48;;;;;;;8.73;7.90;;;;;;;13.66;100.00;96084.31;6177273;23;20001;-64
2022/10/10 09:40:23;;;;;;;8.55;7.80;;;;;;;13.96;100.00;96090.22;6177528;23;20005;-63
2022/10/10 09:42:49;;;;;;;10.73;9.73;;;;;;;13.69;100.00;96090.16;6177630;23;20005;-65
2022/10/10 09:45:30;;;;;;;10.02;8.65;;;;;;;13.71;100.00;96098.78;6177550;23;20072;-66
2022/10/10 09:47:57;;;;;;;9.43;8.73;;;;;;;13.87;100.00;96095.44;6177386;23;20001;-66
2022/10/10 09:50:23;;;;;;;10.25;9.40;;;;;;;13.93;100.00;96098.47;6177384;23;20004;-66
2022/10/10 09:52:49;;;;;;;9.57;8.68;;;;;;;14.03;100.00;96094.72;6177900;22;20001;-66
2022/10/10 09:55:33;;;;;;;12.73;8.65;;;;;;;14.17;100.00;96105.75;6177227;23;20324;-66
2022/10/10 09:58:13;;;;;;;8.98;8.18;;;;;;;14.38;100.00;96104.56;6177204;23;20481;-66
2022/10/10 10:00:39;;;;;;;9.05;8.25;;;;;;;14.43;100.00;96100.47;6177379;23;20005;-63
2022/10/10 10:03:19;;;;;;;8.57;7.80;;;;;;;14.45;100.00;96100.31;6177839;22;20334;-64
2022/10/10 10:06:05;;;;;;;8.98;8.05;;;;;;;14.45;100.00;96103.78;6177878;22;20001;-66
2022/10/10 10:08:34;;;;;;;;;;;;;;;14.40;100.00;96102.59;6177500;23;20020;-67
2022/10/10 10:11:02;;;;;;;8.40;7.70;;;;;;;14.42;100.00;96100.63;6177488;22;19908;-67
2022/10/10 10:13:32;;;;;;;9.43;8.52;;;;;;;14.40;100.00;96102.59;6177217;23;19997;-67
2022/10/10 10:16:12;;;;;;;10.13;9.10;;;;;;;14.57;100.00;96098.22;6177163;23;20037;-66
2022/10/10 10:18:47;;;;;;;10.45;8.55;;;;;;;14.66;100.00;96093.81;6151232;22;20340;-66
2022/10/10 10:21:22;;;;;;;8.65;7.95;;;;;;;14.84;100.00;96099.88;6177253;23;20399;-68
2022/10/10 10:23:52;;;;;;;;;;;;;;;14.86;100.00;96095.25;6177844;23;20013;-59
2022/10/10 10:26:26;;;;;;;7.88;7.35;;;;;;;14.66;100.00;96101.75;6177268;22;20391;-59
2022/10/10 10:28:53;;;;;;;8.65;7.97;;;;;;;14.67;100.00;96098.09;6177259;23;19997;-59
2022/10/10 10:31:51;;;;;;;11.15;8.55;;;;;;;14.63;100.00;96099.41;6177382;23;20003;-59
2022/10/10 10:34:19;;;;;;;9.85;6.57;;;;;;;15.02;100.00;96085.72;6176962;23;20072;-59
2022/10/10 10:36:57;;;;;;;6.75;5.38;;;;;;;14.98;100.00;96090.50;6177277;23;20001;-59
2022/10/10 10:39:22;;;;;;;8.02;6.65;;;;;;;15.04;100.00;96089.03;6177412;23;20012;-57
2022/10/10 10:42:00;;;;;;;9.70;7.28;;;;;;;15.18;100.00;96096.38;6151129;23;19997;-59
2022/10/10 10:44:39;;;;;;;8.15;7.35;;;;;;;15.38;100.00;96088.16;6176998;22;20024;-62
2022/10/10 10:47:30;;;;;;;8.38;7.50;;;;;;;15.54;100.00;96091.81;6176995;23;20020;-62
2022/10/10 10:50:01;;;;;;;7.25;6.55;;;;;;;15.43;100.00;96082.34;6177240;23;20431;-62
2022/10/10 10:52:49;;;;;;;6.72;6.20;;;;;;;15.44;100.00;96090.16;6177060;23;20009;-62
2022/10/10 10:55:27;;;;;;;8.50;7.78;;;;;;;15.51;100.00;96089.50;6177148;23;20016;-62
2022/10/10 10:58:05;;;;;;;8.63;7.72;;;;;;;15.57;100.00;96088.84;6176888;23;20016;-62
2022/10/10 11:00:42;;;;;;;7.93;7.22;;;;;;;15.39;100.00;96079.19;6177411;23;20347;-66
2022/10/10 11:03:31;;;;;;;7.45;6.88;;;;;;;15.46;100.00;96088.16;6176961;23;20001;-63
2022/10/10 11:06:02;;;;;;;8.65;7.78;;;;;;;15.70;100.00;96077.75;6176007;23;20074;-62
2022/10/10 11:08:52;;;;;;;9.40;7.82;;;;;;;15.70;100.00;96078.56;6176789;23;20001;-62
2022/10/10 11:11:17;;;;;;;8.20;7.40;;;;;;;15.84;100.00;96071.78;6177176;23;20009;-62
2022/10/10 11:13:48;;;;;;;5.78;5.38;;;;;;;15.95;100.00;96072.50;6177320;23;20490;-62
2022/10/10 11:16:27;;;;;;;8.45;6.60;;;;;;;15.95;100.00;96064.53;6177163;23;20335;-62
2022/10/10 11:19:14;;;;;;;6.28;5.43;;;;;;;16.11;100.00;96069.00;6176701;23;20040;-57
2022/10/10 11:22:06;;;;;;;5.13;4.63;;;;;;;16.23;100.00;96067.63;6177051;23;19997;-68
2022/10/10 11:24:40;;;;;;;4.57;3.80;;;;;;;16.17;100.00;96063.00;6176476;23;20320;-68
2022/10/10 11:27:14;;;;;;;6.72;4.60;;;;;;;16.12;100.00;96070.66;6176745;23;20009;-68
2022/10/10 11:30:05;;;;;;;6.63;3.83;;;;;;;16.03;100.00;96060.03;6177473;23;20001;-68
2022/10/10 11:32:46;;;;;;;5.72;4.80;;;;;;;16.15;100.00;96067.66;6151876;22;20008;-68
2022/10/10 11:35:26;;;;;;;5.40;4.95;;;;;;;16.11;100.00;96064.50;6178269;23;20028;-68